sensor_id;sensor_type;location;lat;lon;timestamp;pressure;altitude;pressure_sealevel;temperature;humidity
62634;BME280;48704;50.534;6.442;2023-07-20T00:00:37;95466.09;;;13.86;100.00
62634;BME280;48704;50.534;6.442;2023-07-20T00:03:11;95470.16;;;13.85;100.00
62634;BME280;48704;50.534;6.442;2023-07-20T00:05:42;95472.66;;;13.72;100.00
62634;BME280;48704;50.534;6.442;2023-07-20T00:08:08;95470.84;;;13.75;100.00
62634;BME280;48704;50.534;6.442;2023-07-20T00:10:33;95465.56;;;13.82;100.00
62634;BME280;48704;50.534;6.442;2023-07-20T00:12:58;95462.72;;;13.77;100.00
62634;BME280;48704;50.534;6.442;2023-07-20T00:15:25;95468.31;;;13.77;100.00
62634;BME280;48704;50.534;6.442;2023-07-20T00:17:50;95459.06;;;13.54;100.00
62634;BME280;48704;50.534;6.442;2023-07-20T00:20:15;95467.53;;;13.65;100.00
62634;BME280;48704;50.534;6.442;2023-07-20T00:22:41;95467.56;;;13.76;100.00
62634;BME280;48704;50.534;6.442;2023-07-20T00:25:06;95468.53;;;13.62;100.00
62634;BME280;48704;50.534;6.442;2023-07-20T00:27:35;95462.16;;;13.61;100.00
62634;BME280;48704;50.534;6.442;2023-07-20T00:30:00;95467.06;;;13.72;100.00
62634;BME280;48704;50.534;6.442;2023-07-20T00:32:25;95459.41;;;13.78;100.00
62634;BME280;48704;50.534;6.442;2023-07-20T00:34:52;95457.84;;;13.66;100.00
62634;BME280;48704;50.534;6.442;2023-07-20T00:37:18;95453.28;;;13.74;100.00
62634;BME280;48704;50.534;6.442;2023-07-20T00:39:45;95456.31;;;13.65;100.00
62634;BME280;48704;50.534;6.442;2023-07-20T00:42:13;95459.31;;;13.56;100.00
62634;BME280;48704;50.534;6.442;2023-07-20T00:44:38;95453.66;;;13.45;100.00
62634;BME280;48704;50.534;6.442;2023-07-20T00:47:04;95456.13;;;13.31;100.00
62634;BME280;48704;50.534;6.442;2023-07-20T00:49:31;95460.00;;;13.45;100.00
62634;BME280;48704;50.534;6.442;2023-07-20T00:51:58;95449.81;;;13.42;100.00
62634;BME280;48704;50.534;6.442;2023-07-20T00:54:33;95464.34;;;13.46;100.00
62634;BME280;48704;50.534;6.442;2023-07-20T00:57:01;95457.72;;;13.44;100.00
62634;BME280;48704;50.534;6.442;2023-07-20T00:59:27;95460.47;;;13.32;100.00
62634;BME280;48704;50.534;6.442;2023-07-20T01:01:53;95459.94;;;13.28;100.00
62634;BME280;48704;50.534;6.442;2023-07-20T01:04:20;95458.13;;;13.25;100.00
62634;BME280;48704;50.534;6.442;2023-07-20T01:07:12;95451.81;;;13.30;100.00
62634;BME280;48704;50.534;6.442;2023-07-20T01:09:45;95454.88;;;13.32;100.00
62634;BME280;48704;50.534;6.442;2023-07-20T01:12:42;95453.06;;;13.29;100.00
62634;BME280;48704;50.534;6.442;2023-07-20T01:15:09;95451.53;;;13.28;100.00
62634;BME280;48704;50.534;6.442;2023-07-20T01:17:35;95455.94;;;13.09;100.00
62634;BME280;48704;50.534;6.442;2023-07-20T01:20:00;95452.31;;;13.03;100.00
62634;BME280;48704;50.534;6.442;2023-07-20T01:25:43;95451.34;;;13.06;100.00
62634;BME280;48704;50.534;6.442;2023-07-20T01:28:35;95455.13;;;13.03;100.00
62634;BME280;48704;50.534;6.442;2023-07-20T01:31:21;95442.38;;;12.96;100.00
62634;BME280;48704;50.534;6.442;2023-07-20T01:33:48;95445.41;;;12.93;100.00
62634;BME280;48704;50.534;6.442;2023-07-20T01:36:16;95437.56;;;12.97;100.00
62634;BME280;48704;50.534;6.442;2023-07-20T01:38:43;95445.13;;;12.91;100.00
62634;BME280;48704;50.534;6.442;2023-07-20T01:41:12;95439.00;;;12.87;100.00
62634;BME280;48704;50.534;6.442;2023-07-20T01:43:38;95441.06;;;12.92;100.00
62634;BME280;48704;50.534;6.442;2023-07-20T01:46:03;95438.78;;;12.90;100.00
62634;BME280;48704;50.534;6.442;2023-07-20T01:48:28;95444.16;;;12.94;100.00
62634;BME280;48704;50.534;6.442;2023-07-20T01:50:54;95436.47;;;12.89;100.00
62634;BME280;48704;50.534;6.442;2023-07-20T01:53:22;95431.88;;;12.86;100.00
62634;BME280;48704;50.534;6.442;2023-07-20T01:55:48;95429.06;;;12.86;100.00
62634;BME280;48704;50.534;6.442;2023-07-20T01:58:13;95423.13;;;12.72;100.00
62634;BME280;48704;50.534;6.442;2023-07-20T02:00:39;95428.44;;;12.70;100.00
62634;BME280;48704;50.534;6.442;2023-07-20T02:03:04;95425.09;;;12.66;100.00
62634;BME280;48704;50.534;6.442;2023-07-20T02:05:30;95412.84;;;12.58;100.00
62634;BME280;48704;50.534;6.442;2023-07-20T02:07:55;95408.25;;;12.55;100.00
62634;BME280;48704;50.534;6.442;2023-07-20T02:10:20;95412.47;;;12.77;100.00
62634;BME280;48704;50.534;6.442;2023-07-20T02:12:46;95410.50;;;12.83;100.00
62634;BME280;48704;50.534;6.442;2023-07-20T02:15:14;95410.91;;;12.70;100.00
62634;BME280;48704;50.534;6.442;2023-07-20T02:17:44;95402.28;;;12.73;100.00
62634;BME280;48704;50.534;6.442;2023-07-20T02:20:10;95398.69;;;12.67;100.00
62634;BME280;48704;50.534;6.442;2023-07-20T02:22:36;95398.38;;;12.60;100.00
62634;BME280;48704;50.534;6.442;2023-07-20T02:25:04;95409.84;;;12.62;100.00
62634;BME280;48704;50.534;6.442;2023-07-20T02:27:30;95406.13;;;12.76;100.00
62634;BME280;48704;50.534;6.442;2023-07-20T02:29:55;95413.19;;;12.71;100.00
62634;BME280;48704;50.534;6.442;2023-07-20T02:32:21;95406.00;;;12.59;100.00
62634;BME280;48704;50.534;6.442;2023-07-20T02:34:46;95410.22;;;12.49;100.00
62634;BME280;48704;50.534;6.442;2023-07-20T02:37:11;95412.09;;;12.58;100.00
62634;BME280;48704;50.534;6.442;2023-07-20T02:39:38;95417.25;;;12.39;100.00
62634;BME280;48704;50.534;6.442;2023-07-20T02:42:03;95409.75;;;12.25;100.00
62634;BME280;48704;50.534;6.442;2023-07-20T02:44:28;95416.81;;;12.46;100.00
62634;BME280;48704;50.534;6.442;2023-07-20T02:46:56;95410.13;;;12.38;100.00
62634;BME280;48704;50.534;6.442;2023-07-20T02:49:21;95408.59;;;12.37;100.00
62634;BME280;48704;50.534;6.442;2023-07-20T02:51:47;95406.41;;;12.21;100.00
62634;BME280;48704;50.534;6.442;2023-07-20T02:54:12;95419.06;;;12.16;100.00
62634;BME280;48704;50.534;6.442;2023-07-20T02:56:37;95416.03;;;11.94;100.00
62634;BME280;48704;50.534;6.442;2023-07-20T02:59:03;95409.91;;;12.16;100.00
62634;BME280;48704;50.534;6.442;2023-07-20T03:01:29;95419.31;;;11.92;100.00
62634;BME280;48704;50.534;6.442;2023-07-20T03:03:55;95413.06;;;11.77;100.00
62634;BME280;48704;50.534;6.442;2023-07-20T03:06:20;95413.16;;;11.88;100.00
62634;BME280;48704;50.534;6.442;2023-07-20T03:08:46;95420.72;;;11.82;100.00
62634;BME280;48704;50.534;6.442;2023-07-20T03:11:18;95420.44;;;11.80;100.00
62634;BME280;48704;50.534;6.442;2023-07-20T03:13:44;95421.34;;;11.71;100.00
62634;BME280;48704;50.534;6.442;2023-07-20T03:16:12;95422.59;;;11.91;100.00
62634;BME280;48704;50.534;6.442;2023-07-20T03:18:41;95422.09;;;11.92;100.00
62634;BME280;48704;50.534;6.442;2023-07-20T03:21:09;95423.34;;;11.91;100.00
62634;BME280;48704;50.534;6.442;2023-07-20T03:23:38;95418.75;;;11.88;100.00
62634;BME280;48704;50.534;6.442;2023-07-20T03:26:03;95417.91;;;12.02;100.00
62634;BME280;48704;50.534;6.442;2023-07-20T03:28:29;95426.28;;;12.02;100.00
62634;BME280;48704;50.534;6.442;2023-07-20T03:30:55;95420.53;;;12.12;100.00
62634;BME280;48704;50.534;6.442;2023-07-20T03:33:25;95432.28;;;11.95;100.00
62634;BME280;48704;50.534;6.442;2023-07-20T03:35:50;95434.78;;;12.14;100.00
62634;BME280;48704;50.534;6.442;2023-07-20T03:38:16;95427.00;;;12.23;100.00
62634;BME280;48704;50.534;6.442;2023-07-20T03:40:59;95425.06;;;12.35;100.00
62634;BME280;48704;50.534;6.442;2023-07-20T03:43:26;95425.34;;;12.37;100.00
62634;BME280;48704;50.534;6.442;2023-07-20T03:45:52;95429.34;;;12.30;100.00
62634;BME280;48704;50.534;6.442;2023-07-20T03:48:21;95423.16;;;12.47;100.00
62634;BME280;48704;50.534;6.442;2023-07-20T03:50:48;95440.16;;;12.43;100.00
62634;BME280;48704;50.534;6.442;2023-07-20T03:53:14;95446.56;;;12.49;100.00
62634;BME280;48704;50.534;6.442;2023-07-20T03:55:49;95445.28;;;12.50;100.00
62634;BME280;48704;50.534;6.442;2023-07-20T03:58:16;95436.38;;;12.46;100.00
62634;BME280;48704;50.534;6.442;2023-07-20T04:00:46;95445.78;;;12.49;100.00
62634;BME280;48704;50.534;6.442;2023-07-20T04:03:19;95438.59;;;12.42;100.00
62634;BME280;48704;50.534;6.442;2023-07-20T04:05:44;95434.66;;;12.54;100.00
62634;BME280;48704;50.534;6.442;2023-07-20T04:08:10;95449.13;;;12.53;100.00
62634;BME280;48704;50.534;6.442;2023-07-20T04:10:43;95446.72;;;12.40;100.00
62634;BME280;48704;50.534;6.442;2023-07-20T04:13:15;95447.53;;;12.46;100.00
62634;BME280;48704;50.534;6.442;2023-07-20T04:15:42;95441.25;;;12.51;100.00
62634;BME280;48704;50.534;6.442;2023-07-20T04:18:07;95434.56;;;12.43;100.00
62634;BME280;48704;50.534;6.442;2023-07-20T04:20:34;95424.69;;;12.48;100.00
62634;BME280;48704;50.534;6.442;2023-07-20T04:22:59;95442.44;;;12.45;100.00
62634;BME280;48704;50.534;6.442;2023-07-20T04:25:24;95443.94;;;12.40;100.00
62634;BME280;48704;50.534;6.442;2023-07-20T04:27:50;95438.50;;;12.31;100.00
62634;BME280;48704;50.534;6.442;2023-07-20T04:30:18;95438.19;;;12.49;100.00
62634;BME280;48704;50.534;6.442;2023-07-20T04:32:48;95424.47;;;12.51;100.00
62634;BME280;48704;50.534;6.442;2023-07-20T04:35:53;95432.09;;;12.51;100.00
62634;BME280;48704;50.534;6.442;2023-07-20T04:38:20;95432.31;;;12.47;100.00
62634;BME280;48704;50.534;6.442;2023-07-20T04:40:48;95435.53;;;12.40;100.00
62634;BME280;48704;50.534;6.442;2023-07-20T04:43:16;95437.50;;;12.34;100.00
62634;BME280;48704;50.534;6.442;2023-07-20T04:45:43;95434.28;;;12.41;100.00
62634;BME280;48704;50.534;6.442;2023-07-20T04:48:09;95435.44;;;12.29;100.00
62634;BME280;48704;50.534;6.442;2023-07-20T04:50:36;95438.19;;;12.49;100.00
62634;BME280;48704;50.534;6.442;2023-07-20T04:53:02;95437.41;;;12.49;100.00
62634;BME280;48704;50.534;6.442;2023-07-20T04:55:28;95436.38;;;12.46;100.00
62634;BME280;48704;50.534;6.442;2023-07-20T04:57:53;95442.13;;;12.37;100.00
62634;BME280;48704;50.534;6.442;2023-07-20T05:00:21;95438.19;;;12.23;100.00
62634;BME280;48704;50.534;6.442;2023-07-20T05:02:48;95442.56;;;12.30;100.00
62634;BME280;48704;50.534;6.442;2023-07-20T05:05:15;95439.38;;;12.17;100.00
62634;BME280;48704;50.534;6.442;2023-07-20T05:07:40;95441.84;;;12.09;100.00
62634;BME280;48704;50.534;6.442;2023-07-20T05:10:06;95448.69;;;12.34;100.00
62634;BME280;48704;50.534;6.442;2023-07-20T05:12:32;95445.94;;;12.39;100.00
62634;BME280;48704;50.534;6.442;2023-07-20T05:14:57;95440.16;;;12.43;100.00
62634;BME280;48704;50.534;6.442;2023-07-20T05:17:23;95445.09;;;12.54;100.00
62634;BME280;48704;50.534;6.442;2023-07-20T05:19:52;95448.81;;;12.45;100.00
62634;BME280;48704;50.534;6.442;2023-07-20T05:22:17;95448.81;;;12.45;100.00
62634;BME280;48704;50.534;6.442;2023-07-20T05:24:42;95445.25;;;12.45;100.00
62634;BME280;48704;50.534;6.442;2023-07-20T05:27:08;95451.88;;;12.47;100.00
62634;BME280;48704;50.534;6.442;2023-07-20T05:29:33;95455.09;;;12.40;100.00
62634;BME280;48704;50.534;6.442;2023-07-20T05:31:59;95455.13;;;12.71;100.00
62634;BME280;48704;50.534;6.442;2023-07-20T05:34:24;95459.88;;;12.60;100.00
62634;BME280;48704;50.534;6.442;2023-07-20T05:36:53;95453.69;;;12.82;100.00
62634;BME280;48704;50.534;6.442;2023-07-20T05:39:22;95460.44;;;13.01;100.00
62634;BME280;48704;50.534;6.442;2023-07-20T05:41:47;95455.47;;;12.79;100.00
62634;BME280;48704;50.534;6.442;2023-07-20T05:44:13;95465.59;;;13.08;100.00
62634;BME280;48704;50.534;6.442;2023-07-20T05:46:39;95466.03;;;13.01;100.00
62634;BME280;48704;50.534;6.442;2023-07-20T05:49:05;95456.53;;;12.87;100.00
62634;BME280;48704;50.534;6.442;2023-07-20T05:51:31;95456.88;;;12.95;100.00
62634;BME280;48704;50.534;6.442;2023-07-20T05:53:57;95466.97;;;13.18;100.00
62634;BME280;48704;50.534;6.442;2023-07-20T05:56:22;95461.09;;;13.16;100.00
62634;BME280;48704;50.534;6.442;2023-07-20T05:58:47;95473.75;;;13.12;100.00
62634;BME280;48704;50.534;6.442;2023-07-20T06:01:13;95464.53;;;13.37;100.00
62634;BME280;48704;50.534;6.442;2023-07-20T06:03:38;95470.19;;;13.43;100.00
62634;BME280;48704;50.534;6.442;2023-07-20T06:06:04;95467.88;;;13.35;100.00
62634;BME280;48704;50.534;6.442;2023-07-20T06:08:31;95465.66;;;13.51;100.00
62634;BME280;48704;50.534;6.442;2023-07-20T06:10:58;95466.84;;;13.38;100.00
62634;BME280;48704;50.534;6.442;2023-07-20T06:13:24;95459.59;;;13.58;100.00
62634;BME280;48704;50.534;6.442;2023-07-20T06:15:50;95475.28;;;13.44;100.00
62634;BME280;48704;50.534;6.442;2023-07-20T06:18:15;95473.75;;;13.43;100.00
62634;BME280;48704;50.534;6.442;2023-07-20T06:20:42;95475.69;;;13.74;100.00
62634;BME280;48704;50.534;6.442;2023-07-20T06:23:08;95473.66;;;13.69;100.00
62634;BME280;48704;50.534;6.442;2023-07-20T06:25:33;95478.38;;;13.52;100.00
62634;BME280;48704;50.534;6.442;2023-07-20T06:27:59;95467.81;;;13.73;100.00
62634;BME280;48704;50.534;6.442;2023-07-20T06:30:25;95475.81;;;13.48;100.00
62634;BME280;48704;50.534;6.442;2023-07-20T06:32:51;95478.41;;;14.05;100.00
62634;BME280;48704;50.534;6.442;2023-07-20T06:35:17;95492.16;;;14.15;100.00
62634;BME280;48704;50.534;6.442;2023-07-20T06:37:52;95485.34;;;14.32;100.00
62634;BME280;48704;50.534;6.442;2023-07-20T06:40:27;95489.69;;;14.28;100.00
62634;BME280;48704;50.534;6.442;2023-07-20T06:43:34;95491.88;;;14.01;100.00
62634;BME280;48704;50.534;6.442;2023-07-20T06:46:00;95490.44;;;14.28;100.00
62634;BME280;48704;50.534;6.442;2023-07-20T06:49:05;95485.84;;;14.25;100.00
62634;BME280;48704;50.534;6.442;2023-07-20T06:51:32;95495.47;;;14.13;100.00
62634;BME280;48704;50.534;6.442;2023-07-20T06:57:05;95490.72;;;14.36;100.00
62634;BME280;48704;50.534;6.442;2023-07-20T06:59:39;95492.22;;;14.26;100.00
62634;BME280;48704;50.534;6.442;2023-07-20T07:02:08;95500.59;;;14.20;100.00
62634;BME280;48704;50.534;6.442;2023-07-20T07:08:06;95499.44;;;14.49;100.00
62634;BME280;48704;50.534;6.442;2023-07-20T07:13:25;95496.88;;;14.51;100.00
62634;BME280;48704;50.534;6.442;2023-07-20T07:16:03;95497.41;;;14.44;100.00
62634;BME280;48704;50.534;6.442;2023-07-20T07:18:35;95498.34;;;14.30;100.00
62634;BME280;48704;50.534;6.442;2023-07-20T07:21:07;95501.69;;;14.39;100.00
62634;BME280;48704;50.534;6.442;2023-07-20T07:26:25;95516.88;;;14.11;100.00
62634;BME280;48704;50.534;6.442;2023-07-20T07:28:52;95508.75;;;14.18;100.00
62634;BME280;48704;50.534;6.442;2023-07-20T07:31:25;95506.41;;;14.05;100.00
62634;BME280;48704;50.534;6.442;2023-07-20T07:34:38;95509.75;;;14.10;100.00
62634;BME280;48704;50.534;6.442;2023-07-20T07:37:53;95517.16;;;14.24;100.00
62634;BME280;48704;50.534;6.442;2023-07-20T07:40:47;95506.41;;;14.82;100.00
62634;BME280;48704;50.534;6.442;2023-07-20T07:43:55;95521.72;;;14.97;100.00
62634;BME280;48704;50.534;6.442;2023-07-20T07:46:24;95516.06;;;14.69;100.00
62634;BME280;48704;50.534;6.442;2023-07-20T07:48:50;95517.78;;;14.50;100.00
62634;BME280;48704;50.534;6.442;2023-07-20T07:51:16;95519.91;;;14.89;100.00
62634;BME280;48704;50.534;6.442;2023-07-20T07:53:50;95512.28;;;15.51;100.00
62634;BME280;48704;50.534;6.442;2023-07-20T08:00:25;95519.41;;;15.74;100.00
62634;BME280;48704;50.534;6.442;2023-07-20T08:02:51;95518.78;;;16.15;100.00
62634;BME280;48704;50.534;6.442;2023-07-20T08:05:23;95524.00;;;15.55;100.00
62634;BME280;48704;50.534;6.442;2023-07-20T08:08:34;95527.75;;;16.02;100.00
62634;BME280;48704;50.534;6.442;2023-07-20T08:11:06;95526.03;;;15.71;100.00
62634;BME280;48704;50.534;6.442;2023-07-20T08:13:38;95528.88;;;15.43;100.00
62634;BME280;48704;50.534;6.442;2023-07-20T08:22:48;95528.31;;;16.58;100.00
62634;BME280;48704;50.534;6.442;2023-07-20T08:25:24;95521.69;;;16.50;100.00
62634;BME280;48704;50.534;6.442;2023-07-20T08:27:50;95528.63;;;16.96;99.09
62634;BME280;48704;50.534;6.442;2023-07-20T08:30:16;95531.38;;;16.60;92.99
62634;BME280;48704;50.534;6.442;2023-07-20T08:32:45;95531.88;;;16.64;93.23
62634;BME280;48704;50.534;6.442;2023-07-20T08:35:13;95537.28;;;15.71;98.28
62634;BME280;48704;50.534;6.442;2023-07-20T08:37:40;95535.63;;;16.15;100.00
62634;BME280;48704;50.534;6.442;2023-07-20T08:40:09;95529.88;;;16.48;99.65
62634;BME280;48704;50.534;6.442;2023-07-20T08:42:48;95531.25;;;16.83;96.54
62634;BME280;48704;50.534;6.442;2023-07-20T08:45:18;95540.44;;;17.24;94.30
62634;BME280;48704;50.534;6.442;2023-07-20T08:47:48;95534.28;;;17.56;91.44
62634;BME280;48704;50.534;6.442;2023-07-20T08:50:38;95526.94;;;17.17;95.04
62634;BME280;48704;50.534;6.442;2023-07-20T08:53:05;95529.69;;;17.23;92.47
62634;BME280;48704;50.534;6.442;2023-07-20T08:55:53;95529.31;;;17.08;87.61
62634;BME280;48704;50.534;6.442;2023-07-20T08:58:23;95524.78;;;16.41;90.60
62634;BME280;48704;50.534;6.442;2023-07-20T09:01:04;95531.19;;;17.29;90.11
62634;BME280;48704;50.534;6.442;2023-07-20T09:03:29;95532.97;;;17.32;87.87
62634;BME280;48704;50.534;6.442;2023-07-20T09:06:03;95540.69;;;17.86;87.05
62634;BME280;48704;50.534;6.442;2023-07-20T09:08:32;95530.13;;;18.17;85.65
62634;BME280;48704;50.534;6.442;2023-07-20T09:11:03;95534.94;;;17.97;84.63
62634;BME280;48704;50.534;6.442;2023-07-20T09:13:29;95525.91;;;18.48;84.17
62634;BME280;48704;50.534;6.442;2023-07-20T09:15:54;95528.53;;;17.97;80.76
62634;BME280;48704;50.534;6.442;2023-07-20T09:18:28;95526.03;;;18.36;79.23
62634;BME280;48704;50.534;6.442;2023-07-20T09:21:20;95531.88;;;17.95;83.27
62634;BME280;48704;50.534;6.442;2023-07-20T09:23:56;95531.41;;;18.59;78.44
62634;BME280;48704;50.534;6.442;2023-07-20T09:26:21;95537.28;;;17.69;83.86
62634;BME280;48704;50.534;6.442;2023-07-20T09:28:53;95532.28;;;17.21;82.67
62634;BME280;48704;50.534;6.442;2023-07-20T09:31:25;95523.09;;;17.80;80.77
62634;BME280;48704;50.534;6.442;2023-07-20T09:33:56;95537.41;;;18.07;80.66
62634;BME280;48704;50.534;6.442;2023-07-20T09:36:22;95532.34;;;18.67;78.73
62634;BME280;48704;50.534;6.442;2023-07-20T09:38:47;95529.72;;;18.50;78.53
62634;BME280;48704;50.534;6.442;2023-07-20T09:41:13;95523.66;;;17.97;77.30
62634;BME280;48704;50.534;6.442;2023-07-20T09:43:40;95519.34;;;18.40;74.01
62634;BME280;48704;50.534;6.442;2023-07-20T09:46:06;95534.19;;;18.64;73.92
62634;BME280;48704;50.534;6.442;2023-07-20T09:48:32;95519.09;;;17.94;79.87
62634;BME280;48704;50.534;6.442;2023-07-20T09:51:00;95529.78;;;18.88;74.70
62634;BME280;48704;50.534;6.442;2023-07-20T09:53:27;95526.50;;;18.41;77.40
62634;BME280;48704;50.534;6.442;2023-07-20T09:55:54;95528.06;;;18.60;78.18
62634;BME280;48704;50.534;6.442;2023-07-20T09:58:19;95520.09;;;18.59;75.01
62634;BME280;48704;50.534;6.442;2023-07-20T10:00:54;95525.50;;;18.81;75.89
62634;BME280;48704;50.534;6.442;2023-07-20T10:03:39;95531.13;;;18.62;77.13
62634;BME280;48704;50.534;6.442;2023-07-20T10:06:23;95534.56;;;18.31;72.98
62634;BME280;48704;50.534;6.442;2023-07-20T10:08:59;95526.03;;;18.80;71.25
62634;BME280;48704;50.534;6.442;2023-07-20T10:11:29;95534.31;;;18.53;76.33
62634;BME280;48704;50.534;6.442;2023-07-20T10:13:59;95524.22;;;18.58;74.01
62634;BME280;48704;50.534;6.442;2023-07-20T10:16:32;95523.63;;;18.46;70.51
62634;BME280;48704;50.534;6.442;2023-07-20T10:19:23;95527.44;;;18.49;70.82
62634;BME280;48704;50.534;6.442;2023-07-20T10:21:56;95525.78;;;19.15;66.67
62634;BME280;48704;50.534;6.442;2023-07-20T10:24:25;95520.75;;;19.72;67.97
62634;BME280;48704;50.534;6.442;2023-07-20T10:26:51;95516.06;;;19.61;67.35
62634;BME280;48704;50.534;6.442;2023-07-20T10:29:17;95520.03;;;19.98;61.18
62634;BME280;48704;50.534;6.442;2023-07-20T10:31:42;95522.72;;;19.77;63.91
62634;BME280;48704;50.534;6.442;2023-07-20T10:34:09;95514.00;;;19.30;66.05
62634;BME280;48704;50.534;6.442;2023-07-20T10:36:44;95509.28;;;19.19;62.90
62634;BME280;48704;50.534;6.442;2023-07-20T10:39:24;95511.09;;;18.85;66.66
62634;BME280;48704;50.534;6.442;2023-07-20T10:42:03;95509.44;;;18.52;69.57
62634;BME280;48704;50.534;6.442;2023-07-20T10:44:31;95511.69;;;18.78;66.61
62634;BME280;48704;50.534;6.442;2023-07-20T10:47:02;95504.13;;;18.86;69.80
62634;BME280;48704;50.534;6.442;2023-07-20T10:49:28;95498.63;;;20.02;62.23
62634;BME280;48704;50.534;6.442;2023-07-20T10:51:58;95483.59;;;20.47;60.47
62634;BME280;48704;50.534;6.442;2023-07-20T10:56:56;95492.78;;;19.23;62.57
62634;BME280;48704;50.534;6.442;2023-07-20T11:01:55;95488.41;;;19.99;57.82
62634;BME280;48704;50.534;6.442;2023-07-20T11:07:02;95492.03;;;19.68;58.25
62634;BME280;48704;50.534;6.442;2023-07-20T11:09:33;95479.50;;;19.18;61.92
62634;BME280;48704;50.534;6.442;2023-07-20T11:12:12;95489.91;;;20.00;55.95
62634;BME280;48704;50.534;6.442;2023-07-20T11:14:57;95491.66;;;20.43;56.84
62634;BME280;48704;50.534;6.442;2023-07-20T11:17:30;95485.88;;;21.30;52.11
62634;BME280;48704;50.534;6.442;2023-07-20T11:19:57;95479.69;;;21.60;51.51
62634;BME280;48704;50.534;6.442;2023-07-20T11:22:23;95481.63;;;20.89;55.14
62634;BME280;48704;50.534;6.442;2023-07-20T11:24:49;95483.38;;;19.92;57.63
62634;BME280;48704;50.534;6.442;2023-07-20T11:27:15;95487.97;;;18.67;61.28
62634;BME280;48704;50.534;6.442;2023-07-20T11:29:47;95484.91;;;18.84;62.64
62634;BME280;48704;50.534;6.442;2023-07-20T11:32:23;95485.16;;;18.24;65.29
62634;BME280;48704;50.534;6.442;2023-07-20T11:34:49;95497.88;;;18.55;65.08
62634;BME280;48704;50.534;6.442;2023-07-20T11:37:15;95493.75;;;18.56;65.65
62634;BME280;48704;50.534;6.442;2023-07-20T11:39:40;95496.97;;;18.85;68.75
62634;BME280;48704;50.534;6.442;2023-07-20T11:42:06;95499.94;;;18.74;68.36
62634;BME280;48704;50.534;6.442;2023-07-20T11:44:34;95501.28;;;19.36;66.45
62634;BME280;48704;50.534;6.442;2023-07-20T11:47:10;95491.28;;;19.03;65.66
62634;BME280;48704;50.534;6.442;2023-07-20T11:49:37;95490.06;;;18.43;69.34
62634;BME280;48704;50.534;6.442;2023-07-20T11:52:10;95493.09;;;18.26;70.96
62634;BME280;48704;50.534;6.442;2023-07-20T11:54:37;95494.22;;;18.60;69.76
62634;BME280;48704;50.534;6.442;2023-07-20T11:57:03;95494.19;;;18.98;66.37
62634;BME280;48704;50.534;6.442;2023-07-20T11:59:30;95482.88;;;18.98;67.65
62634;BME280;48704;50.534;6.442;2023-07-20T12:01:56;95489.03;;;19.92;64.91
62634;BME280;48704;50.534;6.442;2023-07-20T12:04:25;95482.28;;;20.22;61.24
62634;BME280;48704;50.534;6.442;2023-07-20T12:06:53;95490.13;;;19.89;63.76
62634;BME280;48704;50.534;6.442;2023-07-20T12:09:18;95481.63;;;19.76;63.32
62634;BME280;48704;50.534;6.442;2023-07-20T12:11:44;95477.53;;;20.03;63.21
62634;BME280;48704;50.534;6.442;2023-07-20T12:14:12;95474.66;;;20.43;61.97
62634;BME280;48704;50.534;6.442;2023-07-20T12:16:38;95474.53;;;20.49;59.48
62634;BME280;48704;50.534;6.442;2023-07-20T12:19:12;95476.47;;;21.35;55.83
62634;BME280;48704;50.534;6.442;2023-07-20T12:21:39;95469.41;;;21.70;52.88
62634;BME280;48704;50.534;6.442;2023-07-20T12:24:08;95463.75;;;22.27;51.82
62634;BME280;48704;50.534;6.442;2023-07-20T12:26:35;95464.34;;;22.77;51.58
62634;BME280;48704;50.534;6.442;2023-07-20T12:29:01;95457.41;;;21.35;54.75
62634;BME280;48704;50.534;6.442;2023-07-20T12:31:29;95467.44;;;19.18;60.32
62634;BME280;48704;50.534;6.442;2023-07-20T12:33:56;95464.22;;;19.59;59.35
62634;BME280;48704;50.534;6.442;2023-07-20T12:36:21;95469.81;;;18.82;62.74
62634;BME280;48704;50.534;6.442;2023-07-20T12:38:47;95460.81;;;18.64;62.14
62634;BME280;48704;50.534;6.442;2023-07-20T12:41:13;95461.50;;;18.70;64.08
62634;BME280;48704;50.534;6.442;2023-07-20T12:43:42;95464.63;;;18.86;65.30
62634;BME280;48704;50.534;6.442;2023-07-20T12:46:08;95469.00;;;19.00;64.71
62634;BME280;48704;50.534;6.442;2023-07-20T12:48:33;95474.94;;;19.15;64.75
62634;BME280;48704;50.534;6.442;2023-07-20T12:50:58;95464.25;;;19.98;61.80
62634;BME280;48704;50.534;6.442;2023-07-20T12:53:24;95464.44;;;20.27;58.92
62634;BME280;48704;50.534;6.442;2023-07-20T12:55:49;95462.00;;;21.67;55.09
62634;BME280;48704;50.534;6.442;2023-07-20T12:58:15;95452.63;;;21.30;54.71
62634;BME280;48704;50.534;6.442;2023-07-20T13:00:40;95447.75;;;21.80;52.67
62634;BME280;48704;50.534;6.442;2023-07-20T13:03:06;95448.72;;;21.62;53.36
62634;BME280;48704;50.534;6.442;2023-07-20T13:05:32;95452.56;;;21.44;53.49
62634;BME280;48704;50.534;6.442;2023-07-20T13:07:57;95445.28;;;20.33;57.58
62634;BME280;48704;50.534;6.442;2023-07-20T13:10:23;95446.97;;;20.62;55.24
62634;BME280;48704;50.534;6.442;2023-07-20T13:12:49;95445.94;;;19.60;58.22
62634;BME280;48704;50.534;6.442;2023-07-20T13:15:14;95449.50;;;19.15;58.94
62634;BME280;48704;50.534;6.442;2023-07-20T13:17:39;95445.84;;;19.33;58.14
62634;BME280;48704;50.534;6.442;2023-07-20T13:20:06;95449.63;;;19.55;57.38
62634;BME280;48704;50.534;6.442;2023-07-20T13:22:33;95442.63;;;19.43;58.73
62634;BME280;48704;50.534;6.442;2023-07-20T13:24:59;95443.16;;;19.28;58.99
62634;BME280;48704;50.534;6.442;2023-07-20T13:27:25;95449.66;;;19.23;60.20
62634;BME280;48704;50.534;6.442;2023-07-20T13:29:51;95437.91;;;20.03;57.32
62634;BME280;48704;50.534;6.442;2023-07-20T13:32:17;95431.75;;;20.52;56.21
62634;BME280;48704;50.534;6.442;2023-07-20T13:34:43;95437.97;;;21.40;53.12
62634;BME280;48704;50.534;6.442;2023-07-20T13:37:09;95430.59;;;23.24;48.49
62634;BME280;48704;50.534;6.442;2023-07-20T13:39:35;95426.56;;;22.46;50.75